Date,TemperatureHighF,TemperatureAvgF,TemperatureLowF,DewpointHighF,DewpointAvgF,DewpointLowF,HumidityHigh,HumidityAvg,HumidityLow,PressureMaxIn,PressureMinIn,WindSpeedMaxMPH,WindSpeedAvgMPH,GustSpeedMaxMPH,PrecipitationSumIn
2013-2-1,25,16,6,13,6,-2,76,66,54,30.54,30.21,10,3,17,0.00
2013-2-2,46,34,23,33,24,14,74,67,59,30.24,30.08,13,6,20,0.00
2013-2-3,47,38,30,30,24,15,77,57,35,30.27,29.84,15,5,25,0.00
2013-2-4,46,38,24,30,26,20,87,64,48,29.98,29.76,12,5,22,0.00
2013-2-5,55,37,22,32,26,20,90,67,39,30.09,29.89,12,4,20,0.00
2013-2-6,60,46,33,41,33,25,78,62,43,30.09,29.86,9,4,20,0.00
2013-2-7,48,41,30,45,38,25,96,86,68,30.17,29.83,12,5,23,1.05
2013-2-8,40,31,27,30,26,24,90,81,63,30.35,30.17,9,3,16,0.00
2013-2-9,46,34,27,35,29,24,92,82,58,30.23,29.74,10,5,21,0.03
2013-2-10,49,42,35,45,33,22,96,72,49,29.91,29.47,23,12,39,0.09
2013-2-11,45,36,29,25,23,21,74,59,42,30.17,29.91,17,7,27,0.00
2013-2-12,42,35,28,29,25,21,82,66,52,30.18,29.96,6,1,10,0.00
2013-2-13,54,41,28,30,26,23,83,57,32,29.96,29.78,13,6,21,0.00
2013-2-14,48,42,36,32,28,22,73,58,40,30.17,29.84,14,7,21,0.00
2013-2-15,36,29,21,26,16,7,89,59,34,30.39,30.18,14,6,25,0.00
2013-2-16,34,28,19,24,21,17,93,76,52,30.35,30.10,13,3,20,0.02
2013-2-17,59,43,27,35,29,21,80,58,40,30.10,29.68,9,3,23,0.00
2013-2-18,54,44,28,48,33,17,89,67,45,30.07,29.53,22,10,35,0.03
2013-2-19,33,27,22,18,10,1,78,51,26,30.39,30.08,15,7,25,0.00
2013-2-20,25,21,16,14,8,2,69,58,43,30.43,30.22,8,4,15,0.00
2013-2-21,26,23,20,25,20,14,94,87,69,30.24,29.79,16,6,26,0.00
2013-2-22,28,23,17,23,19,13,94,85,70,30.12,29.82,13,5,18,0.13
2013-2-23,34,22,10,21,16,8,91,77,57,30.12,29.99,8,2,13,0.03
2013-2-24,46,33,20,29,24,17,89,69,50,30.07,29.92,7,3,14,0.04
2013-2-25,37,33,29,32,27,24,94,80,68,29.98,29.66,15,6,29,0.01
2013-2-26,32,31,30,32,31,30,100,98,94,29.85,29.56,12,1,21,0.07
2013-2-27,33,30,28,30,28,26,100,92,75,30.06,29.84,16,5,24,0.02
2013-2-28,32,30,28,28,25,23,85,82,78,30.22,30.05,15,8,24,0.00